Time;durP1;ratioP1;P1;durP2;ratioP2;P2;SDS_P1;SDS_P2;PMS_P1;PMS_P2;Temp;Humidity;BMP_temperature;BMP_pressure;BME280_temperature;BME280_humidity;BME280_pressure;Samples;Min_cycle;Max_cycle;Signal;HPM_P1;HPM_P2
2022/02/05 00:00:23;;;;;;;2.97;1.60;;;5.20;76.80;;;;;;4990859;28;20453;-50
2022/02/05 00:02:47;;;;;;;2.47;1.70;;;5.10;76.80;;;;;;4995329;28;20522;-51
2022/02/05 00:05:17;;;;;;;3.63;1.57;;;5.10;76.60;;;;;;4997573;28;20464;-50
2022/02/05 00:07:52;;;;;;;2.33;1.63;;;5.10;76.80;;;;;;4997707;28;20477;-50
2022/02/05 00:13:13;;;;;;;2.80;1.50;;;5.10;77.00;;;;;;4996187;28;20532;-49
2022/02/05 00:43:09;;;;;;;1.10;1.03;;;4.90;77.00;;;;;;4996638;28;20457;-50
2022/02/05 00:45:40;;;;;;;1.43;1.33;;;4.90;76.00;;;;;;4991354;28;20457;-50
2022/02/05 00:48:08;;;;;;;2.70;1.60;;;4.90;76.00;;;;;;4996266;28;20469;-49
2022/02/05 00:50:39;;;;;;;5.53;1.80;;;4.80;76.30;;;;;;4996725;28;20468;-49
2022/02/05 00:53:23;;;;;;;2.00;1.80;;;4.80;76.80;;;;;;4997206;28;20453;-49
2022/02/05 00:55:58;;;;;;;1.63;1.10;;;4.80;76.70;;;;;;4993804;28;20493;-50
2022/02/05 00:58:24;;;;;;;2.40;1.60;;;4.70;76.90;;;;;;4992238;28;20540;-50
2022/02/05 01:00:51;;;;;;;4.90;1.43;;;4.70;76.70;;;;;;4993318;28;20472;-51
2022/02/05 01:03:18;;;;;;;3.60;1.83;;;4.70;76.60;;;;;;5028215;28;20460;-50
2022/02/05 01:05:46;;;;;;;5.87;2.20;;;4.70;77.10;;;;;;4993505;28;20461;-49
2022/02/05 01:08:15;;;;;;;3.90;1.93;;;4.70;77.20;;;;;;4998266;28;20467;-50
2022/02/05 01:10:41;;;;;;;5.50;2.63;;;4.70;77.30;;;;;;4991871;28;20461;-50
2022/02/05 01:13:11;;;;;;;2.93;1.87;;;4.70;77.30;;;;;;4994806;28;20469;-50
2022/02/05 01:15:53;;;;;;;4.47;1.90;;;4.70;77.50;;;;;;4994085;28;20565;-49
2022/02/05 01:18:21;;;;;;;3.60;2.27;;;4.70;77.60;;;;;;4996063;28;20799;-50
2022/02/05 01:23:37;;;;;;;3.57;2.30;;;4.70;77.40;;;;;;4996269;28;20477;-50
2022/02/05 01:26:13;;;;;;;2.10;1.97;;;4.70;77.60;;;;;;4990276;28;20477;-51
2022/02/05 01:28:42;;;;;;;7.70;4.17;;;4.80;77.40;;;;;;4996936;28;20532;-50
2022/02/05 01:31:08;;;;;;;6.80;2.80;;;4.80;77.00;;;;;;4993005;28;20940;-50
2022/02/05 01:33:54;;;;;;;4.17;2.23;;;4.80;77.30;;;;;;4991961;28;20549;-49
2022/02/05 01:55:34;;;;;;;2.70;2.07;;;4.80;76.60;;;;;;4993750;28;20855;-50
2022/02/05 02:06:26;;;;;;;6.23;2.20;;;4.80;76.70;;;;;;4998086;28;20457;-50
2022/02/05 02:11:52;;;;;;;4.17;2.30;;;4.80;76.70;;;;;;4994404;28;20593;-50
2022/02/05 02:20:21;;;;;;;6.60;2.10;;;4.70;76.70;;;;;;4995688;28;20458;-50
2022/02/05 02:22:23;;;;;;;3.73;2.80;;;4.70;76.90;;;;;;4984278;28;20472;-50
2022/02/05 02:27:43;;;;;;;4.07;2.50;;;4.70;77.30;;;;;;5002601;28;20453;-50
2022/02/05 02:32:44;;;;;;;3.43;2.00;;;4.60;77.20;;;;;;4993894;28;20465;-50
2022/02/05 02:35:20;;;;;;;2.33;1.47;;;4.60;77.40;;;;;;4998327;28;20482;-50
2022/02/05 02:42:51;;;;;;;2.70;1.90;;;4.50;77.40;;;;;;4997473;28;20453;-50
2022/02/05 02:45:17;;;;;;;6.00;2.40;;;4.40;77.50;;;;;;5000013;28;20457;-50
2022/02/05 02:47:44;;;;;;;2.93;2.00;;;4.40;77.40;;;;;;4994923;28;20958;-50
2022/02/05 02:58:27;;;;;;;6.40;1.90;;;4.40;77.70;;;;;;4991561;28;21131;-49
2022/02/05 03:00:57;;;;;;;2.50;1.77;;;4.40;78.00;;;;;;5001145;28;20480;-50
2022/02/05 03:03:28;;;;;;;3.00;1.93;;;4.40;77.90;;;;;;4997051;28;20840;-50
2022/02/05 03:05:55;;;;;;;6.60;2.53;;;4.30;77.70;;;;;;4995747;28;20811;-49
2022/02/05 03:08:22;;;;;;;2.07;1.80;;;4.30;78.10;;;;;;4996866;28;20450;-48
2022/02/05 03:10:48;;;;;;;6.13;2.00;;;4.30;78.10;;;;;;4995487;28;20492;-50
2022/02/05 03:13:15;;;;;;;6.00;2.63;;;4.30;78.00;;;;;;4998974;28;20467;-49
2022/02/05 03:15:45;;;;;;;2.40;1.90;;;4.30;78.20;;;;;;4991837;28;20990;-49
2022/02/05 03:18:26;;;;;;;5.50;2.03;;;4.30;79.00;;;;;;4999220;28;21019;-49
2022/02/05 03:20:53;;;;;;;3.30;2.20;;;4.30;78.50;;;;;;4995695;28;21290;-49
2022/02/05 03:23:20;;;;;;;5.03;2.23;;;4.40;78.10;;;;;;4999266;28;20486;-50
2022/02/05 03:25:46;;;;;;;2.07;1.57;;;4.40;78.10;;;;;;4994408;28;20468;-50
2022/02/05 03:28:13;;;;;;;2.93;1.90;;;4.30;78.40;;;;;;4989233;28;20469;-47
2022/02/05 03:30:40;;;;;;;3.73;2.07;;;4.30;78.30;;;;;;4989268;28;20484;-47
2022/02/05 03:33:06;;;;;;;3.37;2.30;;;4.30;78.20;;;;;;4973158;28;20820;-47
2022/02/05 03:35:36;;;;;;;2.80;2.20;;;4.30;78.40;;;;;;5002348;28;20568;-48
2022/02/05 03:38:03;;;;;;;4.87;2.80;;;4.30;78.70;;;;;;4981237;28;20460;-47
2022/02/05 03:40:29;;;;;;;9.40;2.17;;;4.30;78.50;;;;;;4981681;28;20465;-48
2022/02/05 03:42:56;;;;;;;6.70;3.47;;;4.30;78.50;;;;;;4981223;28;21230;-48
2022/02/05 03:45:23;;;;;;;6.47;2.40;;;4.30;78.90;;;;;;4980965;28;20465;-48
2022/02/05 03:47:52;;;;;;;8.57;2.20;;;4.20;78.70;;;;;;4977683;28;20472;-47
2022/02/05 03:50:19;;;;;;;3.70;2.10;;;4.20;78.60;;;;;;4981683;28;20473;-47
2022/02/05 03:52:46;;;;;;;6.83;2.90;;;4.20;79.10;;;;;;4977573;28;21005;-48
2022/02/05 03:55:13;;;;;;;2.50;2.10;;;4.20;79.00;;;;;;4978317;28;20486;-48
2022/02/05 03:57:39;;;;;;;4.07;2.60;;;4.20;79.00;;;;;;4983192;28;20830;-48
2022/02/05 04:00:08;;;;;;;2.80;2.10;;;4.20;79.10;;;;;;4993476;28;20827;-48
2022/02/05 04:02:35;;;;;;;3.00;1.70;;;4.20;79.00;;;;;;4978821;28;20463;-47
2022/02/05 04:05:04;;;;;;;8.10;2.37;;;4.20;79.10;;;;;;4981084;28;20853;-48
2022/02/05 04:07:34;;;;;;;3.03;2.10;;;4.20;79.30;;;;;;4973635;28;20469;-47
2022/02/05 04:10:04;;;;;;;4.67;2.63;;;4.20;79.20;;;;;;4996660;28;20465;-47
2022/02/05 04:18:01;;;;;;;6.17;2.83;;;4.20;79.10;;;;;;4977948;28;20827;-47
2022/02/05 04:20:28;;;;;;;2.80;2.17;;;4.30;79.20;;;;;;4979483;28;20544;-47
2022/02/05 04:22:56;;;;;;;5.53;2.67;;;4.30;79.10;;;;;;4979164;28;20519;-47
2022/02/05 04:25:22;;;;;;;6.27;3.10;;;4.30;79.20;;;;;;4983455;28;20474;-48
2022/02/05 04:27:49;;;;;;;4.77;2.93;;;4.40;79.10;;;;;;4978009;28;20943;-47
2022/02/05 04:30:16;;;;;;;6.40;4.00;;;4.40;78.90;;;;;;4978023;28;20468;-48
2022/02/05 04:32:43;;;;;;;5.07;2.60;;;4.40;78.90;;;;;;4980263;28;20470;-48
2022/02/05 04:35:10;;;;;;;5.30;2.60;;;4.40;78.50;;;;;;4981550;28;20493;-48
2022/02/05 04:37:37;;;;;;;3.67;2.60;;;4.40;78.30;;;;;;4973183;28;20959;-48
2022/02/05 04:42:48;;;;;;;3.30;2.40;;;4.50;78.10;;;;;;4973975;28;20461;-48
2022/02/05 04:50:26;;;;;;;3.23;2.80;;;4.50;77.90;;;;;;4979451;28;20476;-49
2022/02/05 04:55:57;;;;;;;6.80;2.27;;;4.50;78.50;;;;;;4971147;28;20489;-48
2022/02/05 05:04:04;;;;;;;3.53;2.70;;;4.50;77.50;;;;;;4981074;28;20456;-47
2022/02/05 05:22:00;;;;;;;5.50;2.83;;;4.30;78.10;;;;;;4978882;28;20445;-47
2022/02/05 05:24:27;;;;;;;3.90;2.50;;;4.40;78.10;;;;;;4978053;28;20461;-47
2022/02/05 05:26:55;;;;;;;5.80;2.50;;;4.40;78.00;;;;;;4974647;28;20468;-47
2022/02/05 05:29:22;;;;;;;5.17;2.90;;;4.30;78.30;;;;;;4978632;28;21004;-47
2022/02/05 05:31:49;;;;;;;4.43;2.73;;;4.30;78.30;;;;;;4982472;28;20843;-47
2022/02/05 05:34:16;;;;;;;5.20;2.53;;;4.40;78.10;;;;;;4982911;28;20464;-47
2022/02/05 05:36:42;;;;;;;5.00;2.70;;;4.40;78.10;;;;;;4981855;28;20745;-48
2022/02/05 05:39:11;;;;;;;4.00;2.87;;;4.40;77.70;;;;;;4978407;28;20453;-48
2022/02/05 05:41:39;;;;;;;4.80;2.97;;;4.40;78.00;;;;;;4975649;28;20470;-47
2022/02/05 05:49:21;;;;;;;6.30;2.93;;;4.40;78.20;;;;;;4977607;28;20466;-47
2022/02/05 05:51:48;;;;;;;3.10;2.80;;;4.40;77.70;;;;;;4981263;28;20457;-47
2022/02/05 05:54:16;;;;;;;2.63;2.43;;;4.40;78.60;;;;;;4979912;28;21029;-47
2022/02/05 05:56:45;;;;;;;5.00;2.70;;;4.40;78.10;;;;;;4984055;28;21054;-47
2022/02/05 05:59:12;;;;;;;4.10;2.70;;;4.30;78.90;;;;;;4983486;28;20464;-47
2022/02/05 06:01:39;;;;;;;6.40;3.17;;;4.30;79.10;;;;;;4985829;28;20469;-47
2022/02/05 06:04:06;;;;;;;5.07;3.20;;;4.30;79.10;;;;;;4985771;28;20968;-47
2022/02/05 06:06:33;;;;;;;4.03;2.43;;;4.30;79.20;;;;;;4985130;28;20461;-48
2022/02/05 06:09:00;;;;;;;4.53;2.70;;;4.30;79.20;;;;;;4984801;28;20473;-47
2022/02/05 06:11:27;;;;;;;4.00;2.60;;;4.30;79.10;;;;;;4983442;28;20842;-47
2022/02/05 06:13:54;;;;;;;5.73;2.90;;;4.30;79.10;;;;;;4978372;28;20507;-47
2022/02/05 06:16:28;;;;;;;6.00;3.30;;;4.30;79.20;;;;;;4983608;28;20571;-47
2022/02/05 06:18:56;;;;;;;4.63;3.27;;;4.30;79.20;;;;;;4983380;28;20462;-48
2022/02/05 06:21:22;;;;;;;11.53;2.70;;;4.30;79.20;;;;;;4978793;28;20462;-47
2022/02/05 06:23:49;;;;;;;3.63;2.17;;;4.30;79.50;;;;;;4976273;28;20483;-47
2022/02/05 06:26:16;;;;;;;4.40;2.90;;;4.40;79.40;;;;;;4983610;28;21151;-47
2022/02/05 06:28:43;;;;;;;5.37;2.70;;;4.30;79.40;;;;;;4981886;28;20465;-48
2022/02/05 06:31:09;;;;;;;2.90;2.67;;;4.30;79.20;;;;;;4982036;28;20465;-47
2022/02/05 06:33:36;;;;;;;5.33;3.27;;;4.30;79.60;;;;;;4982323;28;20461;-47
2022/02/05 06:36:03;;;;;;;4.97;3.30;;;4.30;79.50;;;;;;4980663;28;20488;-48
2022/02/05 06:38:30;;;;;;;5.10;2.73;;;4.30;79.40;;;;;;4979574;28;20818;-48
2022/02/05 06:40:56;;;;;;;6.20;2.87;;;4.30;79.40;;;;;;4981042;28;20457;-47
2022/02/05 06:43:23;;;;;;;2.70;2.50;;;4.30;79.40;;;;;;4984541;28;20453;-47
2022/02/05 06:45:50;;;;;;;3.93;2.80;;;4.30;79.40;;;;;;4981904;28;20472;-47
2022/02/05 06:48:17;;;;;;;5.93;3.10;;;4.20;79.50;;;;;;4980836;28;20974;-47
2022/02/05 06:50:44;;;;;;;4.07;3.20;;;4.20;79.70;;;;;;4979487;28;20493;-47
2022/02/05 06:53:11;;;;;;;2.90;2.53;;;4.20;79.70;;;;;;4979920;28;20468;-47
2022/02/05 06:55:37;;;;;;;4.80;2.87;;;4.20;79.60;;;;;;4971457;28;20490;-47
2022/02/05 06:58:04;;;;;;;6.30;2.63;;;4.10;79.20;;;;;;4978722;28;20461;-47
2022/02/05 07:00:31;;;;;;;4.03;2.70;;;4.10;79.40;;;;;;4982561;28;20466;-47
2022/02/05 07:02:58;;;;;;;3.33;3.03;;;4.10;78.90;;;;;;4984167;28;20520;-47
2022/02/05 07:05:25;;;;;;;7.80;2.90;;;4.10;79.10;;;;;;4983248;28;20841;-47
2022/02/05 07:07:53;;;;;;;6.00;3.17;;;4.10;79.10;;;;;;4982218;28;20460;-47
2022/02/05 07:10:20;;;;;;;8.40;2.90;;;4.00;79.50;;;;;;4982926;28;20465;-47
2022/02/05 07:15:29;;;;;;;4.27;2.93;;;3.90;79.90;;;;;;4980563;28;20489;-47
2022/02/05 07:18:16;;;;;;;4.90;3.40;;;3.90;80.10;;;;;;4985476;28;20480;-47
2022/02/05 07:20:49;;;;;;;3.70;2.83;;;3.80;80.30;;;;;;4980659;28;20851;-47
2022/02/05 07:23:49;;;;;;;8.37;2.60;;;3.80;80.60;;;;;;4978273;28;20569;-47
2022/02/05 07:31:33;;;;;;;6.73;4.20;;;3.90;80.70;;;;;;4985711;28;20457;-47
2022/02/05 07:34:01;;;;;;;6.40;3.20;;;3.90;80.80;;;;;;4978853;28;20464;-47
2022/02/05 07:36:28;;;;;;;4.97;3.20;;;3.90;81.10;;;;;;4985804;28;21049;-47
2022/02/05 07:38:54;;;;;;;3.37;2.87;;;3.90;81.10;;;;;;4981578;28;20450;-47
2022/02/05 07:41:21;;;;;;;3.70;3.40;;;4.00;81.00;;;;;;4977479;28;20631;-48
2022/02/05 07:43:48;;;;;;;3.90;3.10;;;4.00;80.50;;;;;;4980399;28;20804;-47
2022/02/05 07:46:15;;;;;;;3.27;2.97;;;4.10;79.90;;;;;;4980355;28;20465;-47
2022/02/05 07:48:42;;;;;;;6.73;3.30;;;4.00;80.10;;;;;;4980058;28;20461;-47
2022/02/05 07:51:10;;;;;;;5.33;3.10;;;4.00;80.40;;;;;;4980687;28;20969;-48
2022/02/05 07:53:37;;;;;;;4.87;3.10;;;4.00;80.30;;;;;;4977003;28;20473;-47
2022/02/05 07:56:04;;;;;;;4.30;3.40;;;3.90;80.90;;;;;;4982371;28;20521;-47
2022/02/05 07:58:34;;;;;;;3.63;3.27;;;3.90;80.70;;;;;;4982880;28;21219;-47
2022/02/05 08:01:02;;;;;;;6.33;3.67;;;3.90;81.00;;;;;;4979049;28;20480;-47
2022/02/05 08:03:30;;;;;;;4.00;2.80;;;3.90;81.30;;;;;;4982516;28;21180;-47
2022/02/05 08:05:59;;;;;;;3.10;2.90;;;4.00;81.30;;;;;;4980946;28;20870;-47
2022/02/05 08:08:29;;;;;;;6.97;4.37;;;4.00;80.80;;;;;;4982730;28;20450;-47
2022/02/05 08:11:03;;;;;;;4.37;3.20;;;4.00;81.00;;;;;;4981181;28;20462;-47
2022/02/05 08:13:32;;;;;;;11.37;6.80;;;4.00;80.90;;;;;;4980659;28;20955;-47
2022/02/05 08:17:14;;;;;;;5.73;4.53;;;4.00;81.00;;;;;;4979050;28;20998;-47
2022/02/05 08:18:59;;;;;;;5.97;3.40;;;4.00;81.40;;;;;;4983674;28;20461;-49
2022/02/05 08:21:25;;;;;;;4.63;2.90;;;4.10;81.10;;;;;;4984549;28;20465;-46
2022/02/05 08:23:52;;;;;;;6.10;3.63;;;4.10;80.90;;;;;;4976308;28;20491;-47
2022/02/05 08:26:23;;;;;;;4.60;3.40;;;4.10;80.70;;;;;;4983019;28;21101;-47
2022/02/05 08:28:50;;;;;;;3.53;2.77;;;4.10;80.60;;;;;;4982464;28;20483;-47
2022/02/05 08:31:16;;;;;;;4.23;3.80;;;4.20;80.90;;;;;;4978690;28;20793;-47
2022/02/05 08:33:44;;;;;;;7.17;3.30;;;4.20;80.70;;;;;;4964631;28;20465;-48
2022/02/05 08:36:11;;;;;;;4.60;3.60;;;4.20;80.80;;;;;;4979104;28;20525;-48
2022/02/05 08:38:38;;;;;;;5.20;3.67;;;4.20;80.70;;;;;;4974634;28;20464;-48
2022/02/05 08:41:05;;;;;;;6.90;3.90;;;4.20;80.90;;;;;;4980193;28;20969;-47
2022/02/05 08:43:32;;;;;;;4.73;2.90;;;4.20;80.50;;;;;;4963688;28;20465;-47
2022/02/05 08:45:59;;;;;;;6.10;4.07;;;4.20;80.80;;;;;;4976783;28;20458;-47
2022/02/05 08:48:26;;;;;;;9.90;3.97;;;4.20;80.80;;;;;;4976812;28;20470;-48
2022/02/05 08:50:53;;;;;;;3.43;3.13;;;4.20;80.80;;;;;;4979905;28;20462;-47
2022/02/05 08:53:21;;;;;;;4.33;3.47;;;4.20;81.10;;;;;;4978162;28;20947;-47
2022/02/05 08:55:50;;;;;;;5.87;4.53;;;4.30;80.70;;;;;;4979531;28;20472;-47
2022/02/05 08:58:16;;;;;;;3.80;2.77;;;4.30;80.90;;;;;;4978816;28;20457;-46
2022/02/05 09:00:47;;;;;;;5.60;4.10;;;4.40;80.30;;;;;;4974861;28;20451;-46
2022/02/05 09:03:41;;;;;;;5.10;3.47;;;4.40;80.50;;;;;;4977979;28;20458;-47
2022/02/05 09:06:06;;;;;;;8.47;3.70;;;4.40;80.80;;;;;;4978240;28;20453;-51
2022/02/05 09:08:39;;;;;;;3.73;3.30;;;4.40;81.30;;;;;;4980076;28;20874;-51
2022/02/05 09:16:14;;;;;;;5.27;3.23;;;4.70;80.10;;;;;;4979801;28;20496;-50
2022/02/05 09:18:43;;;;;;;9.40;3.00;;;4.80;80.40;;;;;;4983127;28;20457;-51
2022/02/05 09:21:11;;;;;;;4.23;3.50;;;4.90;79.70;;;;;;4978806;28;20463;-51
2022/02/05 09:23:40;;;;;;;3.90;3.27;;;5.00;79.00;;;;;;4996493;28;20568;-51
2022/02/05 09:26:08;;;;;;;4.07;3.60;;;5.00;78.70;;;;;;5001683;28;20465;-51
2022/02/05 09:28:35;;;;;;;4.80;3.10;;;5.10;79.00;;;;;;4985956;28;20462;-51
2022/02/05 09:33:37;;;;;;;16.10;4.80;;;5.30;78.50;;;;;;4991032;28;20462;-51
2022/02/05 09:36:04;;;;;;;5.40;3.30;;;5.40;78.70;;;;;;4989551;28;20796;-52
2022/02/05 09:38:33;;;;;;;10.40;4.27;;;5.50;77.40;;;;;;4991508;28;20950;-51
2022/02/05 09:40:59;;;;;;;6.10;3.13;;;5.60;77.00;;;;;;4986840;28;20977;-48
2022/02/05 09:43:28;;;;;;;5.83;3.00;;;5.70;77.40;;;;;;4984380;28;20840;-47
2022/02/05 09:45:58;;;;;;;4.83;3.07;;;5.80;76.80;;;;;;4979438;28;20472;-48
2022/02/05 09:48:31;;;;;;;3.83;2.80;;;5.90;76.00;;;;;;4997272;28;20461;-49
2022/02/05 09:51:06;;;;;;;3.10;2.80;;;5.90;76.00;;;;;;4980888;28;20458;-47
2022/02/05 09:53:35;;;;;;;3.33;2.67;;;6.00;75.70;;;;;;4978846;28;20905;-49
2022/02/05 09:56:01;;;;;;;3.30;3.00;;;6.10;75.50;;;;;;4984611;28;20950;-47
2022/02/05 09:58:28;;;;;;;4.57;2.93;;;6.10;75.00;;;;;;4987271;28;20460;-47
2022/02/05 10:01:10;;;;;;;5.73;2.80;;;6.20;75.40;;;;;;4981438;28;20457;-48
2022/02/05 10:03:39;;;;;;;4.87;2.60;;;6.30;75.20;;;;;;4973510;28;20458;-47
2022/02/05 10:06:22;;;;;;;9.50;3.57;;;6.50;74.50;;;;;;4982558;28;20465;-46
2022/02/05 10:09:05;;;;;;;11.00;2.80;;;6.60;74.10;;;;;;5009303;28;20468;-47
2022/02/05 10:11:48;;;;;;;2.93;2.30;;;6.70;73.70;;;;;;4981475;28;20465;-47
2022/02/05 10:14:21;;;;;;;6.63;2.50;;;6.70;73.90;;;;;;5001686;28;20549;-50
2022/02/05 10:16:57;;;;;;;6.73;2.80;;;6.80;73.00;;;;;;5004425;28;20544;-50
2022/02/05 10:19:43;;;;;;;3.07;2.60;;;6.90;73.10;;;;;;5005658;28;20949;-51
2022/02/05 10:22:10;;;;;;;3.80;2.80;;;7.00;72.80;;;;;;5002273;28;20476;-49
2022/02/05 10:24:52;;;;;;;2.97;2.40;;;7.10;72.00;;;;;;4996572;28;20458;-50
2022/02/05 10:27:32;;;;;;;7.03;2.57;;;7.10;71.90;;;;;;5001210;28;20465;-51
2022/02/05 10:30:28;;;;;;;2.53;2.10;;;7.20;71.90;;;;;;4988627;28;20452;-50
2022/02/05 10:33:01;;;;;;;4.13;2.47;;;7.30;72.70;;;;;;5002310;28;20464;-49
2022/02/05 10:42:49;;;;;;;3.20;2.23;;;7.50;71.00;;;;;;4999512;28;20450;-51
2022/02/05 10:43:32;;;;;;;4.30;2.63;;;7.50;70.70;;;;;;5001125;28;20467;-52
2022/02/05 10:46:01;;;;;;;2.90;2.40;;;7.60;70.70;;;;;;4992972;28;20450;-49
2022/02/05 10:48:29;;;;;;;3.30;2.47;;;7.60;69.60;;;;;;5004777;28;20461;-50
2022/02/05 10:50:57;;;;;;;4.50;2.23;;;7.70;70.30;;;;;;5002854;28;20540;-50
2022/02/05 10:53:35;;;;;;;3.47;2.20;;;7.70;70.50;;;;;;4999355;28;20492;-49
2022/02/05 11:07:14;;;;;;;2.73;2.40;;;8.00;69.60;;;;;;4995694;28;20461;-47
2022/02/05 11:09:43;;;;;;;4.90;2.77;;;8.10;69.30;;;;;;4985084;28;20858;-48
2022/02/05 11:20:15;;;;;;;2.60;2.00;;;8.30;68.90;;;;;;4981955;28;20990;-48
2022/02/05 11:22:56;;;;;;;3.43;2.60;;;8.40;68.10;;;;;;4979960;28;20835;-46
2022/02/05 11:25:27;;;;;;;6.40;3.07;;;8.40;68.70;;;;;;4975370;28;20479;-46
2022/02/05 11:27:54;;;;;;;3.67;1.60;;;8.50;68.70;;;;;;4981868;28;20553;-47
2022/02/05 11:30:27;;;;;;;3.30;1.53;;;8.50;68.60;;;;;;4976081;28;20466;-46
2022/02/05 11:32:58;;;;;;;4.40;2.87;;;8.50;67.80;;;;;;5008395;28;20544;-46
2022/02/05 11:35:33;;;;;;;3.57;2.10;;;8.50;68.40;;;;;;4978542;28;21017;-46
2022/02/05 11:38:02;;;;;;;5.40;2.13;;;8.50;68.00;;;;;;4976453;28;20599;-46
2022/02/05 11:40:52;;;;;;;2.60;2.17;;;8.50;67.10;;;;;;5006382;28;20465;-46
2022/02/05 11:43:23;;;;;;;6.00;2.50;;;8.50;66.60;;;;;;4979295;28;20457;-47
2022/02/05 11:46:05;;;;;;;3.83;2.20;;;8.50;67.10;;;;;;4982962;28;20534;-46
2022/02/05 11:48:55;;;;;;;2.73;1.70;;;8.50;66.70;;;;;;4982137;28;20461;-47
2022/02/05 11:51:30;;;;;;;4.73;1.83;;;8.40;67.60;;;;;;4984655;28;20989;-47
2022/02/05 11:54:04;;;;;;;2.77;1.63;;;8.40;68.00;;;;;;4980321;28;20988;-46
2022/02/05 11:59:17;;;;;;;2.10;1.90;;;8.40;67.60;;;;;;4979573;28;20942;-46
2022/02/05 12:01:45;;;;;;;5.57;1.60;;;8.40;66.80;;;;;;4982477;28;20505;-46
2022/02/05 12:04:14;;;;;;;6.43;2.20;;;8.40;66.80;;;;;;4975674;28;20468;-46
2022/02/05 12:06:49;;;;;;;1.80;1.60;;;8.40;67.50;;;;;;4979951;28;20473;-46
2022/02/05 12:09:38;;;;;;;4.03;1.93;;;8.40;67.30;;;;;;4979915;28;20464;-45
2022/02/05 12:12:27;;;;;;;4.77;1.90;;;8.40;68.10;;;;;;4976356;28;20838;-46
2022/02/05 12:15:16;;;;;;;3.03;2.17;;;8.40;68.20;;;;;;5006018;28;20454;-46
2022/02/05 12:20:32;;;;;;;5.30;2.47;;;8.30;67.90;;;;;;4978713;28;20954;-45
2022/02/05 12:25:58;;;;;;;5.43;2.23;;;8.30;68.70;;;;;;4964546;28;20449;-46
2022/02/05 12:28:45;;;;;;;2.17;1.80;;;8.30;69.20;;;;;;4981698;28;20464;-46
2022/02/05 12:31:18;;;;;;;3.90;1.57;;;8.30;69.10;;;;;;4985189;28;21037;-46
2022/02/05 12:34:14;;;;;;;3.00;1.73;;;8.30;68.90;;;;;;5007398;28;20464;-46
2022/02/05 12:36:47;;;;;;;4.30;2.53;;;8.20;69.60;;;;;;4981896;28;20453;-47
2022/02/05 12:39:30;;;;;;;4.03;2.10;;;8.20;69.50;;;;;;4980473;28;20498;-47
2022/02/05 12:42:00;;;;;;;3.90;1.73;;;8.20;70.30;;;;;;4985191;28;20454;-47
2022/02/05 12:44:29;;;;;;;4.10;2.00;;;8.20;69.30;;;;;;4977131;28;20462;-46
2022/02/05 12:46:59;;;;;;;2.87;1.73;;;8.30;69.00;;;;;;4977092;28;20457;-47
2022/02/05 12:49:36;;;;;;;2.67;1.90;;;8.20;68.90;;;;;;5012199;28;21196;-47
2022/02/05 12:52:03;;;;;;;1.37;1.27;;;8.20;68.20;;;;;;4979437;28;20458;-47
2022/02/05 12:54:31;;;;;;;3.10;2.10;;;8.20;68.20;;;;;;4980960;28;20530;-46
2022/02/05 12:56:59;;;;;;;3.20;1.83;;;8.20;68.20;;;;;;4976322;28;20874;-47
2022/02/05 12:59:35;;;;;;;3.80;1.70;;;8.20;68.00;;;;;;4981903;28;20469;-47
2022/02/05 13:02:10;;;;;;;5.80;2.17;;;8.20;68.60;;;;;;4980764;28;20829;-47
2022/02/05 13:04:51;;;;;;;7.93;2.27;;;8.30;68.10;;;;;;5003305;28;20465;-47
2022/02/05 13:07:25;;;;;;;2.50;1.97;;;8.30;67.80;;;;;;4983081;28;20487;-47
2022/02/05 13:10:06;;;;;;;2.40;1.90;;;8.30;67.60;;;;;;4982509;28;20469;-46
2022/02/05 13:12:42;;;;;;;5.13;2.33;;;8.20;67.80;;;;;;4979413;28;20464;-46
2022/02/05 13:26:08;;;;;;;5.03;1.97;;;8.10;67.20;;;;;;4982442;28;20454;-46
2022/02/05 13:39:36;;;;;;;4.97;2.00;;;7.90;67.20;;;;;;4982606;28;20576;-46
2022/02/05 13:42:17;;;;;;;4.13;2.03;;;7.90;67.00;;;;;;4977627;28;20486;-47
2022/02/05 13:45:18;;;;;;;4.20;1.90;;;7.90;67.60;;;;;;4981983;28;20457;-46
2022/02/05 13:50:37;;;;;;;2.30;2.10;;;7.80;67.40;;;;;;4963589;28;20468;-50
2022/02/05 13:53:07;;;;;;;2.30;2.10;;;7.80;67.60;;;;;;4970198;28;20977;-50
2022/02/05 13:55:36;;;;;;;4.90;2.10;;;7.80;67.70;;;;;;4952094;28;20994;-50
2022/02/05 13:58:09;;;;;;;2.90;2.40;;;7.80;67.30;;;;;;4970016;28;20493;-50
2022/02/05 14:00:49;;;;;;;1.50;1.40;;;7.70;67.70;;;;;;4973503;28;20553;-50
2022/02/05 14:03:28;;;;;;;3.57;2.47;;;7.70;68.10;;;;;;4968101;28;20500;-50
2022/02/05 14:06:07;;;;;;;3.07;2.50;;;7.70;68.50;;;;;;4970570;28;20553;-50
2022/02/05 14:08:51;;;;;;;3.40;3.10;;;7.70;69.50;;;;;;4973813;28;20466;-50
2022/02/05 14:11:29;;;;;;;2.90;2.70;;;7.80;71.40;;;;;;4971973;28;20453;-49
2022/02/05 14:14:01;;;;;;;6.43;3.63;;;7.80;71.50;;;;;;4957274;28;20549;-49
2022/02/05 14:16:33;;;;;;;3.17;2.80;;;7.80;71.50;;;;;;4976862;28;21041;-49
2022/02/05 14:19:03;;;;;;;6.00;2.90;;;7.80;71.90;;;;;;4971666;28;20490;-50
2022/02/05 14:21:38;;;;;;;5.10;3.03;;;7.90;71.70;;;;;;4974174;28;20473;-50
2022/02/05 14:24:13;;;;;;;5.53;2.80;;;7.90;70.80;;;;;;4953601;28;21149;-50
2022/02/05 14:26:52;;;;;;;3.50;2.53;;;8.00;70.20;;;;;;4971748;28;20950;-50
2022/02/05 14:29:19;;;;;;;3.30;2.77;;;8.00;70.60;;;;;;4971129;28;20549;-50
2022/02/05 14:31:50;;;;;;;2.97;2.50;;;8.20;69.00;;;;;;4952474;28;20461;-50
2022/02/05 14:34:33;;;;;;;4.50;2.67;;;8.20;68.40;;;;;;4970416;28;20474;-50
2022/02/05 14:42:17;;;;;;;6.07;3.30;;;8.30;67.10;;;;;;4972207;28;20458;-50
2022/02/05 14:44:47;;;;;;;3.37;2.30;;;8.30;66.80;;;;;;4965938;28;20458;-50
2022/02/05 14:47:15;;;;;;;4.10;3.70;;;8.30;66.60;;;;;;4999424;22;20519;-47
2022/02/05 14:49:42;;;;;;;4.57;2.80;;;8.30;65.70;;;;;;5006216;28;20456;-46
2022/02/05 14:52:14;;;;;;;2.63;2.43;;;8.30;65.90;;;;;;5001046;28;20547;-46
2022/02/05 14:54:42;;;;;;;2.57;2.37;;;8.30;65.80;;;;;;5024415;28;20491;-45
2022/02/05 14:57:11;;;;;;;4.00;2.23;;;8.20;66.10;;;;;;5006912;28;20837;-46
2022/02/05 14:59:38;;;;;;;4.83;2.63;;;8.20;66.30;;;;;;5007299;28;20959;-50
2022/02/05 15:02:08;;;;;;;4.60;3.47;;;8.10;66.70;;;;;;5007888;28;20961;-49
2022/02/05 15:04:36;;;;;;;4.23;2.30;;;8.10;66.20;;;;;;5008361;28;20827;-47
2022/02/05 15:07:05;;;;;;;6.07;3.90;;;8.10;66.40;;;;;;5006961;28;20455;-47
2022/02/05 15:09:32;;;;;;;4.23;3.77;;;8.00;66.00;;;;;;5007806;28;20464;-46
2022/02/05 15:11:59;;;;;;;4.13;2.97;;;8.00;67.10;;;;;;5008812;28;20463;-49
2022/02/05 15:14:26;;;;;;;3.00;2.57;;;8.00;66.50;;;;;;5007218;28;21043;-49
2022/02/05 15:16:54;;;;;;;3.10;2.43;;;8.00;66.10;;;;;;5010289;28;20456;-49
2022/02/05 15:19:21;;;;;;;5.83;3.17;;;7.90;66.30;;;;;;5008087;28;20480;-49
2022/02/05 15:21:47;;;;;;;2.47;2.03;;;7.90;66.30;;;;;;4996178;28;20480;-49
2022/02/05 15:24:14;;;;;;;3.63;3.30;;;7.80;67.00;;;;;;5009149;28;20456;-49
2022/02/05 15:26:41;;;;;;;3.37;2.60;;;7.70;67.20;;;;;;5006365;28;20536;-50
2022/02/05 15:29:11;;;;;;;5.90;2.60;;;7.60;67.60;;;;;;5008291;28;20461;-49
2022/02/05 15:31:40;;;;;;;2.30;2.10;;;7.50;67.80;;;;;;5003979;28;20544;-49
2022/02/05 15:34:09;;;;;;;5.47;3.07;;;7.40;67.60;;;;;;5007169;28;20494;-50
2022/02/05 15:39:27;;;;;;;4.00;3.00;;;7.20;68.20;;;;;;5006901;28;20903;-50
2022/02/05 15:44:39;;;;;;;6.97;2.53;;;7.20;68.30;;;;;;5009444;28;20456;-49
2022/02/05 15:47:07;;;;;;;4.63;2.90;;;7.10;68.50;;;;;;5016351;28;20511;-49
2022/02/05 15:49:34;;;;;;;4.50;2.30;;;7.00;69.00;;;;;;5028923;28;20514;-49
2022/02/05 15:52:04;;;;;;;3.80;2.57;;;7.00;69.50;;;;;;5028560;28;20462;-50
2022/02/05 15:54:32;;;;;;;2.33;2.13;;;7.00;69.20;;;;;;5029399;28;20459;-50
2022/02/05 16:02:14;;;;;;;3.10;2.53;;;7.00;69.50;;;;;;5015782;28;20923;-48
2022/02/05 16:04:41;;;;;;;4.83;3.60;;;6.90;70.00;;;;;;5041495;28;20483;-49
2022/02/05 16:07:08;;;;;;;3.40;3.10;;;6.90;69.80;;;;;;5041012;28;21039;-49
2022/02/05 16:09:35;;;;;;;3.17;2.87;;;6.90;69.90;;;;;;5039134;28;20455;-50
2022/02/05 16:12:05;;;;;;;7.27;6.00;;;6.90;69.80;;;;;;5040486;28;20456;-49
2022/02/05 16:14:32;;;;;;;4.10;3.40;;;6.90;69.50;;;;;;5039268;28;20463;-49
2022/02/05 16:17:01;;;;;;;2.83;2.63;;;6.90;69.40;;;;;;5038793;28;20452;-50
2022/02/05 16:19:31;;;;;;;6.40;3.07;;;6.80;69.60;;;;;;5039252;28;20483;-50
2022/02/05 16:21:59;;;;;;;4.53;3.27;;;6.70;69.50;;;;;;5040671;28;20482;-49
2022/02/05 16:24:25;;;;;;;3.43;2.73;;;6.70;69.50;;;;;;5038922;28;20458;-50
2022/02/05 16:26:52;;;;;;;3.47;2.90;;;6.60;69.50;;;;;;5019364;28;20448;-49
2022/02/05 16:29:25;;;;;;;4.37;3.47;;;6.60;69.80;;;;;;5023660;28;20490;-50
2022/02/05 16:31:56;;;;;;;3.10;2.80;;;6.50;70.00;;;;;;5037754;28;20451;-49
2022/02/05 16:34:26;;;;;;;2.87;2.67;;;6.50;69.90;;;;;;5020473;28;20527;-47
2022/02/05 16:36:53;;;;;;;5.40;2.60;;;6.50;70.60;;;;;;5025702;28;20460;-47
2022/02/05 16:39:25;;;;;;;3.53;2.70;;;6.40;70.20;;;;;;5019605;28;21247;-47
2022/02/05 16:41:54;;;;;;;4.97;2.53;;;6.40;70.10;;;;;;5020895;28;20462;-47
2022/02/05 16:44:21;;;;;;;3.00;2.70;;;6.30;70.50;;;;;;5020838;28;20911;-47
2022/02/05 16:46:51;;;;;;;6.97;5.30;;;6.30;70.50;;;;;;5021832;28;20486;-47
2022/02/05 16:49:18;;;;;;;2.83;2.33;;;6.30;70.50;;;;;;5020524;28;20459;-47
2022/02/05 16:51:50;;;;;;;3.30;2.87;;;6.20;70.30;;;;;;5022014;28;20463;-47
2022/02/05 16:54:17;;;;;;;5.17;2.67;;;6.20;70.10;;;;;;5018792;28;20478;-47